MET'MAP v2.0
soon released !

Expected late october,
this new version will be
more efficient, smarter,
and hosted on a brand new
server x3 powerfull...
...and still free !


Not compatible ?
Try the mobile version !

LOG IN : | Subscribe | Disclaimer | Who is Orbifly ? |
ICAO code :

TAF - EHBK Maastricht Aachen - 03 Apr 2020 03:35 UTC
Data Sources :     NOAA   


- Airport Elevation : 375 ft
- IATA code : MST
- No reported NOTAMs.


EHBK - Maastricht Aachen

Latest METAR recorded : 2015/08/11 07:55 EHBK 110755Z AUTO 26003KT 200V320 5000 BR FEW021 20/16 Q1018 BECMG 7000 NSW
TAF TAF EHBK
Valid from the 03 at 00:00 until the 04 at 06:00 UTC


022305Z 0300/0406 24008KT 9999 BKN035
PROB40
TEMPO 0300/0311 4000 -SHRA RADZ BKN008 SCT015TCU
BECMG 0301/0304 2000 BR BKN004
PROB30 0304/0307 7000 NSW BKN025
BECMG 0307/0310 27010KT 9999 NSW BKN025
BECMG 0316/0319 32005KT

Source NOAA


MET'MAP, your aeronautical weather chart ! - Copyright ORBIFLY December 2007

Programming & Development : Alexandra Zaïnal
Co-Developer : Marc-Olivier Méhu
Technical & hardware support : Manuel Goepfert
Concept & Financing : Baudouin d'Aumeries